Terminal Aerodrome Forecast
Issued by NWS Sioux Falls, SD

Home | Current Version | Previous Version | Text Only | Print | Product List | Glossary On
Versions: 1 2 3 4 5 6 7 8 9 10 11 12 13 14 15 16 17 18 19 20 21 22 23
000
FTUS43 KFSD 241500 AAC
TAFFSD
TAF AMD
KFSD 241500Z 2415/2512 14012KT P6SM SCT070 BKN200
     FM241700 16014G21KT P6SM SHRA BKN035
     FM241900 16013G19KT P6SM +SHRA VCTS BKN035CB
     FM250000 17009KT P6SM SCT040 BKN120
     FM250400 22008KT P6SM BKN090
     FM250600 27008KT P6SM SKC=

USA.gov is the U.S. government's official web portal to all federal, state and local government web resources and services.